LFRV/VNE METAR and TAF weather

Enter ICAO airport designator
Station Type Date Time Source
LFRV METAR 2019/06/18 15:30 UTC NOAA

LFRV 181530Z AUTO 13005KT 050V160 9999 BKN048 26/16 Q1008


Station Type Date Time Source
LFRV Decoded METAR 2019/06/18 15:30 UTC NOAA

Station name not available
Jun 18, 2019 - 11:30 AM EDT / 2019.06.18 1530 UTC
Wind: from the SE (130 degrees) at 6 MPH (5 KT) (direction variable):0
Visibility: greater than 7 mile(s):0
Sky conditions: mostly cloudy
Temperature: 78 F (26 C)
Dew Point: 60 F (16 C)
Relative Humidity: 54%
Pressure (altimeter): 29.77 in. Hg (1008 hPa)
ob: LFRV 181530Z AUTO 13005KT 050V160 9999 BKN048 26/16 Q1008
cycle: 15

Station Type Date Time Source
LFRV TAF UTC NOAA

Error!

Example: see airport list